createdAt,value
2022-10-12T00:01:21.564Z,8.10
2022-10-12T00:03:50.402Z,8.65
2022-10-12T00:06:23.526Z,7.80
2022-10-12T00:08:55.585Z,8.65
2022-10-12T00:11:27.332Z,7.82
2022-10-12T00:13:57.406Z,7.30
2022-10-12T00:16:26.839Z,11.75
2022-10-12T00:18:57.822Z,8.15
2022-10-12T00:21:31.820Z,7.00
2022-10-12T00:24:02.508Z,7.85
2022-10-12T00:26:31.479Z,8.00
2022-10-12T00:29:03.222Z,9.85
2022-10-12T00:31:33.411Z,7.57
2022-10-12T00:34:04.252Z,7.38
2022-10-12T00:36:36.437Z,7.70
2022-10-12T00:39:08.972Z,8.45
2022-10-12T00:41:41.483Z,9.02
2022-10-12T00:44:43.856Z,10.48
2022-10-12T00:47:29.467Z,11.70
2022-10-12T00:50:03.990Z,8.25
2022-10-12T00:52:47.742Z,7.72
2022-10-12T00:55:22.060Z,8.88
2022-10-12T00:57:53.789Z,8.30
2022-10-12T01:00:24.187Z,8.20
2022-10-12T01:02:55.523Z,6.85
2022-10-12T01:05:25.587Z,7.50
2022-10-12T01:07:55.551Z,6.65
2022-10-12T01:10:24.045Z,6.90
2022-10-12T01:12:52.853Z,8.27
2022-10-12T01:15:22.564Z,7.57
2022-10-12T01:18:02.257Z,7.68
2022-10-12T01:20:55.245Z,7.00
2022-10-12T01:24:10.602Z,9.32
2022-10-12T01:27:19.867Z,7.13
2022-10-12T01:30:14.686Z,8.68
2022-10-12T01:33:22.341Z,8.32
2022-10-12T01:36:01.745Z,8.73
2022-10-12T01:38:43.612Z,7.78
2022-10-12T01:41:20.264Z,7.63
2022-10-12T01:43:52.376Z,7.50
2022-10-12T01:46:47.928Z,7.40
2022-10-12T01:49:20.572Z,7.35
2022-10-12T01:52:05.961Z,7.30
2022-10-12T01:54:53.265Z,7.90
2022-10-12T01:57:33.002Z,7.90
2022-10-12T02:00:07.461Z,8.15
2022-10-12T02:02:51.447Z,10.13
2022-10-12T02:05:29.263Z,7.97
2022-10-12T02:08:06.708Z,8.15
2022-10-12T02:10:41.589Z,10.88
2022-10-12T02:13:16.520Z,7.85
2022-10-12T02:15:46.506Z,8.77
2022-10-12T02:18:21.869Z,9.15
2022-10-12T02:20:55.552Z,9.00
2022-10-12T02:23:26.387Z,8.48
2022-10-12T02:25:58.992Z,9.07
2022-10-12T02:28:31.876Z,9.10
2022-10-12T02:31:10.553Z,9.63
2022-10-12T02:33:47.492Z,8.73
2022-10-12T02:36:27.092Z,9.10
2022-10-12T02:39:03.929Z,8.63
2022-10-12T02:41:42.138Z,9.18
2022-10-12T02:44:16.403Z,10.35
2022-10-12T02:46:47.309Z,9.65
2022-10-12T02:49:19.434Z,11.15
2022-10-12T02:51:48.605Z,10.77
2022-10-12T02:54:17.220Z,10.73
2022-10-12T02:56:47.103Z,8.48
2022-10-12T02:59:18.207Z,9.57
2022-10-12T03:01:46.926Z,11.13
2022-10-12T03:04:17.480Z,11.10
2022-10-12T03:06:46.058Z,13.82
2022-10-12T03:09:14.715Z,17.65
2022-10-12T03:11:43.998Z,15.77
2022-10-12T03:14:13.280Z,9.60
2022-10-12T03:16:42.637Z,11.48
2022-10-12T03:19:11.220Z,8.48
2022-10-12T03:21:43.550Z,11.55
2022-10-12T03:24:12.737Z,13.27
2022-10-12T03:26:41.320Z,10.43
2022-10-12T03:29:10.475Z,11.40
2022-10-12T03:31:39.054Z,10.93
2022-10-12T03:34:07.759Z,11.25
2022-10-12T03:36:36.391Z,11.63
2022-10-12T03:39:06.349Z,12.88
2022-10-12T03:41:34.963Z,11.80
2022-10-12T03:44:03.590Z,12.52
2022-10-12T03:46:32.161Z,11.55
2022-10-12T03:49:01.921Z,13.15
2022-10-12T03:51:30.766Z,9.75
2022-10-12T03:53:59.405Z,10.40
2022-10-12T03:56:29.330Z,12.05
2022-10-12T03:58:57.906Z,10.30
2022-10-12T04:01:26.865Z,12.00
2022-10-12T04:03:55.497Z,11.05
2022-10-12T04:06:24.226Z,11.52
2022-10-12T04:08:52.764Z,11.30
2022-10-12T04:11:21.540Z,10.32
2022-10-12T04:13:51.567Z,10.52
2022-10-12T04:16:20.168Z,12.35
2022-10-12T04:18:48.810Z,12.45
2022-10-12T04:21:19.967Z,9.45
2022-10-12T04:23:48.692Z,10.52
2022-10-12T04:26:17.260Z,9.13
2022-10-12T04:28:45.870Z,10.20
2022-10-12T04:31:15.935Z,9.48
2022-10-12T04:33:44.453Z,12.05
2022-10-12T04:36:13.314Z,10.75
2022-10-12T04:38:43.397Z,9.98
2022-10-12T04:41:11.990Z,9.63
2022-10-12T04:43:40.540Z,9.20
2022-10-12T04:46:09.497Z,13.27
2022-10-12T04:48:39.774Z,9.07
2022-10-12T04:51:08.358Z,9.95
2022-10-12T04:53:37.246Z,9.88
2022-10-12T04:56:07.801Z,10.35
2022-10-12T04:58:36.602Z,10.85
2022-10-12T05:01:05.576Z,10.27
2022-10-12T05:03:37.135Z,11.80
2022-10-12T05:06:11.223Z,12.07
2022-10-12T05:08:39.947Z,10.15
2022-10-12T05:11:08.574Z,11.07
2022-10-12T05:13:37.236Z,13.52
2022-10-12T05:16:06.119Z,11.45
2022-10-12T05:18:34.851Z,9.70
2022-10-12T05:21:03.470Z,11.10
2022-10-12T05:23:33.827Z,10.23
2022-10-12T05:26:02.411Z,11.38
2022-10-12T05:28:31.351Z,9.98
2022-10-12T05:31:00.171Z,12.88
2022-10-12T05:33:28.843Z,10.25
2022-10-12T05:36:00.615Z,9.90
2022-10-12T05:38:29.332Z,8.00
2022-10-12T05:41:00.955Z,7.43
2022-10-12T05:43:30.258Z,6.63
2022-10-12T05:45:58.842Z,10.35
2022-10-12T05:48:27.601Z,7.03
2022-10-12T05:50:56.706Z,11.95
2022-10-12T05:53:25.750Z,6.53
2022-10-12T05:55:55.932Z,8.15
2022-10-12T05:58:27.628Z,11.00
2022-10-12T06:00:57.013Z,7.40
2022-10-12T06:03:26.514Z,9.70
2022-10-12T06:05:55.428Z,14.40
2022-10-12T06:08:24.121Z,19.70
2022-10-12T06:10:54.096Z,17.67
2022-10-12T06:13:22.672Z,17.60
2022-10-12T06:15:53.197Z,14.32
2022-10-12T06:18:22.159Z,15.32
2022-10-12T06:21:03.994Z,16.67
2022-10-12T06:23:41.601Z,16.52
2022-10-12T06:26:10.171Z,11.27
2022-10-12T06:28:38.825Z,10.88
2022-10-12T06:31:09.173Z,11.15
2022-10-12T06:33:38.129Z,11.48
2022-10-12T06:36:07.462Z,13.07
2022-10-12T06:38:36.260Z,13.48
2022-10-12T06:41:04.856Z,16.23
2022-10-12T06:43:33.435Z,13.57
2022-10-12T06:46:02.695Z,13.35
2022-10-12T06:48:32.728Z,12.77
2022-10-12T06:51:01.406Z,13.38
2022-10-12T06:53:32.934Z,14.60
2022-10-12T06:56:06.156Z,13.85
2022-10-12T06:58:34.779Z,15.75
2022-10-12T07:01:05.021Z,16.13
2022-10-12T07:03:36.138Z,22.40
2022-10-12T07:06:10.710Z,16.67
2022-10-12T07:08:41.173Z,15.98
2022-10-12T07:11:12.884Z,21.88
2022-10-12T07:13:41.730Z,20.45
2022-10-12T07:16:10.470Z,19.20
2022-10-12T07:18:41.236Z,16.02
2022-10-12T07:21:09.821Z,17.80
2022-10-12T07:23:43.645Z,17.27
2022-10-12T07:26:13.725Z,18.98
2022-10-12T07:28:42.368Z,12.85
2022-10-12T07:31:11.866Z,13.45
2022-10-12T07:33:41.943Z,13.15
2022-10-12T07:36:17.304Z,14.95
2022-10-12T07:38:49.696Z,13.18
2022-10-12T07:41:19.067Z,13.82
2022-10-12T07:43:47.688Z,9.73
2022-10-12T07:46:16.354Z,9.43
2022-10-12T07:48:50.237Z,9.15
2022-10-12T07:51:19.457Z,9.35
2022-10-12T07:53:48.037Z,10.15
2022-10-12T07:56:16.745Z,8.38
2022-10-12T07:58:51.123Z,11.40
2022-10-12T08:01:21.897Z,9.45
2022-10-12T08:03:56.310Z,6.78
2022-10-12T08:06:30.558Z,8.85
2022-10-12T08:09:00.922Z,9.68
2022-10-12T08:11:31.187Z,7.05
2022-10-12T08:13:59.806Z,7.78
2022-10-12T08:16:28.420Z,6.88
2022-10-12T08:18:58.345Z,7.65
2022-10-12T08:21:26.954Z,6.45
2022-10-12T08:23:55.533Z,8.38
2022-10-12T08:26:24.237Z,9.00
2022-10-12T08:28:52.834Z,12.27
2022-10-12T08:31:21.580Z,9.65
2022-10-12T08:33:50.200Z,8.35
2022-10-12T08:36:20.326Z,9.05
2022-10-12T08:38:54.135Z,9.30
2022-10-12T08:41:40.045Z,7.80
2022-10-12T08:44:30.992Z,7.65
2022-10-12T08:47:06.523Z,7.20
2022-10-12T08:49:36.450Z,7.57
2022-10-12T08:52:22.289Z,8.77
2022-10-12T08:54:51.028Z,7.72
2022-10-12T08:57:20.979Z,9.15
2022-10-12T08:59:49.672Z,10.30
2022-10-12T09:02:46.946Z,10.57
2022-10-12T09:05:24.188Z,10.05
2022-10-12T09:08:01.630Z,11.20
2022-10-12T09:10:46.109Z,11.90
2022-10-12T09:13:42.994Z,15.05
2022-10-12T09:16:24.038Z,9.52
2022-10-12T09:18:57.933Z,10.32
2022-10-12T09:21:32.307Z,12.25
2022-10-12T09:24:05.703Z,8.68
2022-10-12T09:26:40.102Z,8.55
2022-10-12T09:29:24.736Z,9.35
2022-10-12T09:32:32.585Z,9.20
2022-10-12T09:35:02.566Z,8.13
2022-10-12T09:37:34.325Z,8.43
2022-10-12T09:40:04.899Z,11.80
2022-10-12T09:42:34.758Z,10.95
2022-10-12T09:45:15.862Z,9.35
2022-10-12T09:48:22.632Z,11.88
2022-10-12T09:50:58.049Z,9.70
2022-10-12T09:53:33.055Z,8.88
2022-10-12T09:56:13.167Z,8.93
2022-10-12T09:58:54.356Z,10.88
2022-10-12T10:01:26.867Z,9.32
2022-10-12T10:04:17.101Z,8.98
2022-10-12T10:06:48.436Z,9.45
2022-10-12T10:09:36.372Z,8.13
2022-10-12T10:12:24.188Z,7.63
2022-10-12T10:14:56.760Z,9.50
2022-10-12T10:17:29.543Z,8.85
2022-10-12T10:20:00.372Z,8.80
2022-10-12T10:22:31.692Z,8.45
2022-10-12T10:25:02.086Z,10.02
2022-10-12T10:27:37.834Z,8.90
2022-10-12T10:30:29.517Z,8.30
2022-10-12T10:33:17.198Z,10.70
2022-10-12T10:36:09.972Z,11.38
2022-10-12T10:38:57.262Z,10.38
2022-10-12T10:41:31.697Z,8.15
2022-10-12T10:44:00.466Z,8.30
2022-10-12T10:46:34.368Z,10.02
2022-10-12T10:49:08.253Z,11.15
2022-10-12T10:51:50.421Z,9.32
2022-10-12T10:54:38.509Z,10.45
2022-10-12T10:57:17.513Z,13.57
2022-10-12T10:59:54.678Z,9.13
2022-10-12T11:02:34.783Z,9.98
2022-10-12T11:05:15.395Z,9.90
2022-10-12T11:07:51.173Z,11.25
2022-10-12T11:10:31.791Z,11.07
2022-10-12T11:13:11.911Z,11.30
2022-10-12T11:15:47.892Z,11.35
2022-10-12T11:18:24.984Z,10.50
2022-10-12T11:20:59.909Z,11.90
2022-10-12T11:23:45.585Z,12.55
2022-10-12T11:26:27.596Z,24.58
2022-10-12T11:29:01.175Z,13.02
2022-10-12T11:31:36.151Z,10.85
2022-10-12T11:34:13.429Z,11.90
2022-10-12T11:37:07.484Z,9.38
2022-10-12T11:39:44.215Z,10.68
2022-10-12T11:42:23.542Z,10.48
2022-10-12T11:44:53.261Z,10.55
2022-10-12T11:47:34.850Z,10.43
2022-10-12T11:50:26.482Z,11.25
2022-10-12T11:52:58.372Z,10.40
2022-10-12T11:55:59.285Z,9.88
2022-10-12T11:58:55.856Z,11.20
2022-10-12T12:01:44.907Z,11.45
2022-10-12T12:04:44.783Z,11.27
2022-10-12T12:07:48.006Z,10.32
2022-10-12T12:11:02.643Z,13.88
2022-10-12T12:13:33.315Z,12.00
2022-10-12T12:16:36.601Z,11.82
2022-10-12T12:19:37.797Z,13.57
2022-10-12T12:22:29.825Z,11.07
2022-10-12T12:25:30.731Z,11.85
2022-10-12T12:28:06.479Z,10.85
2022-10-12T12:30:40.676Z,11.07
2022-10-12T12:33:31.955Z,29.08
2022-10-12T12:36:04.522Z,13.55
2022-10-12T12:38:35.949Z,12.63
2022-10-12T12:41:12.498Z,12.20
2022-10-12T12:44:04.069Z,13.75
2022-10-12T12:47:43.900Z,11.60
2022-10-12T12:50:32.756Z,12.05
2022-10-12T12:53:08.349Z,11.05
2022-10-12T12:56:01.300Z,13.65
2022-10-12T12:58:58.321Z,11.77
2022-10-12T13:02:03.063Z,12.05
2022-10-12T13:05:02.749Z,14.00
2022-10-12T13:08:15.127Z,12.55
2022-10-12T13:11:21.099Z,12.63
2022-10-12T13:14:06.758Z,15.35
2022-10-12T13:19:57.523Z,13.05
2022-10-12T13:22:33.217Z,11.88
2022-10-12T13:25:06.118Z,13.43
2022-10-12T13:27:46.365Z,14.15
2022-10-12T13:30:33.864Z,18.60
2022-10-12T13:33:13.485Z,12.25
2022-10-12T13:35:50.351Z,13.50
2022-10-12T13:38:24.225Z,13.10
2022-10-12T13:41:02.642Z,13.75
2022-10-12T13:43:38.099Z,17.45
2022-10-12T13:46:08.747Z,14.98
2022-10-12T13:48:58.865Z,15.82
2022-10-12T13:51:30.428Z,14.43
2022-10-12T13:53:59.543Z,15.82
2022-10-12T13:56:31.651Z,15.32
2022-10-12T13:59:07.059Z,16.13
2022-10-12T14:01:51.363Z,15.05
2022-10-12T14:04:20.394Z,21.83
2022-10-12T14:06:59.769Z,21.77
2022-10-12T14:09:35.128Z,16.98
2022-10-12T14:12:04.175Z,23.88
2022-10-12T14:14:37.574Z,21.08
2022-10-12T14:17:06.626Z,19.15
2022-10-12T14:19:45.076Z,17.08
2022-10-12T14:22:25.612Z,17.65
2022-10-12T14:25:12.400Z,15.05
2022-10-12T14:27:41.956Z,15.35
2022-10-12T14:30:20.909Z,17.10
2022-10-12T14:32:50.857Z,20.45
2022-10-12T14:35:27.947Z,17.70
2022-10-12T14:37:59.264Z,18.48
2022-10-12T14:40:38.614Z,19.48
2022-10-12T14:43:24.368Z,18.95
2022-10-12T14:45:53.523Z,18.50
2022-10-12T14:48:24.077Z,20.73
2022-10-12T14:50:59.385Z,20.27
2022-10-12T14:53:29.707Z,20.95
2022-10-12T14:55:58.335Z,22.00
2022-10-12T14:58:26.992Z,18.75
2022-10-12T15:00:55.724Z,21.75
2022-10-12T15:03:24.282Z,21.13
2022-10-12T15:05:52.876Z,23.42
2022-10-12T15:08:21.508Z,22.80
2022-10-12T15:10:53.218Z,20.92
2022-10-12T15:13:21.758Z,23.83
2022-10-12T15:15:50.788Z,23.20
2022-10-12T15:18:19.399Z,23.35
2022-10-12T15:20:49.799Z,26.88
2022-10-12T15:23:18.693Z,25.88
2022-10-12T15:25:54.390Z,25.13
2022-10-12T15:28:24.502Z,27.50
2022-10-12T15:33:43.391Z,24.50
2022-10-12T15:36:12.079Z,23.63
2022-10-12T15:38:40.945Z,25.13
2022-10-12T15:41:19.267Z,23.45
2022-10-12T15:43:48.074Z,23.13
2022-10-12T15:46:16.761Z,23.75
2022-10-12T15:48:45.451Z,23.35
2022-10-12T15:51:20.705Z,22.95
2022-10-12T15:53:49.436Z,25.30
2022-10-12T15:56:20.729Z,29.48
2022-10-12T15:58:49.629Z,27.63
2022-10-12T16:01:21.403Z,27.10
2022-10-12T16:03:50.541Z,27.77
2022-10-12T16:06:19.411Z,26.88
2022-10-12T16:08:48.324Z,25.63
2022-10-12T16:11:20.408Z,26.33
2022-10-12T16:13:55.610Z,27.95
2022-10-12T16:16:25.898Z,27.10
2022-10-12T16:18:54.949Z,28.70
2022-10-12T16:21:23.618Z,26.52
2022-10-12T16:23:52.266Z,29.50
2022-10-12T16:26:22.253Z,24.65
2022-10-12T16:28:51.112Z,24.40
2022-10-12T16:31:19.921Z,23.10
2022-10-12T16:33:48.531Z,23.58
2022-10-12T16:36:18.318Z,25.20
2022-10-12T16:38:47.082Z,24.55
2022-10-12T16:41:18.762Z,28.48
2022-10-12T16:43:48.770Z,27.95
2022-10-12T16:46:17.540Z,29.00
2022-10-12T16:48:46.107Z,25.17
2022-10-12T16:51:15.532Z,25.27
2022-10-12T16:53:44.128Z,24.58
2022-10-12T16:56:12.713Z,21.88
2022-10-12T16:58:41.347Z,23.55
2022-10-12T17:01:13.871Z,24.77
2022-10-12T17:03:42.974Z,22.60
2022-10-12T17:06:12.369Z,21.88
2022-10-12T17:08:41.285Z,22.73
2022-10-12T17:11:12.119Z,24.25
2022-10-12T17:13:48.106Z,24.85
2022-10-12T17:16:37.354Z,22.35
2022-10-12T17:19:05.965Z,24.40
2022-10-12T17:21:35.136Z,24.25
2022-10-12T17:24:04.419Z,24.70
2022-10-12T17:26:35.289Z,24.60
2022-10-12T17:29:08.693Z,25.23
2022-10-12T17:31:38.785Z,26.75
2022-10-12T17:34:08.400Z,23.83
2022-10-12T17:36:37.259Z,24.17
2022-10-12T17:39:06.016Z,24.17
2022-10-12T17:41:34.661Z,22.05
2022-10-12T17:44:03.273Z,23.45
2022-10-12T17:46:31.864Z,24.80
2022-10-12T17:49:03.779Z,22.73
2022-10-12T17:51:32.346Z,23.25
2022-10-12T17:54:01.643Z,22.25
2022-10-12T17:56:30.654Z,21.88
2022-10-12T17:59:02.113Z,22.20
2022-10-12T18:01:32.491Z,21.58
2022-10-12T18:04:04.758Z,20.48
2022-10-12T18:06:35.163Z,20.90
2022-10-12T18:09:06.119Z,23.52
2022-10-12T18:11:54.519Z,22.38
2022-10-12T18:14:23.241Z,23.98
2022-10-12T18:16:52.238Z,21.77
2022-10-12T18:19:22.302Z,21.67
2022-10-12T18:21:50.937Z,23.27
2022-10-12T18:24:20.791Z,22.95
2022-10-12T18:26:49.632Z,21.15
2022-10-12T18:29:18.377Z,22.13
2022-10-12T18:31:47.054Z,22.67
2022-10-12T18:34:15.634Z,21.50
2022-10-12T18:36:45.618Z,24.15
2022-10-12T18:39:15.173Z,21.88
2022-10-12T18:41:44.185Z,22.75
2022-10-12T18:44:15.106Z,24.08
2022-10-12T18:46:43.695Z,27.95
2022-10-12T18:49:13.251Z,22.48
2022-10-12T18:51:47.978Z,25.85
2022-10-12T18:54:17.182Z,23.42
2022-10-12T18:56:46.441Z,23.88
2022-10-12T18:59:17.897Z,22.73
2022-10-12T19:01:47.528Z,22.42
2022-10-12T19:04:16.728Z,22.55
2022-10-12T19:06:46.769Z,22.67
2022-10-12T19:09:15.901Z,23.83
2022-10-12T19:11:44.583Z,22.67
2022-10-12T19:14:15.834Z,23.42
2022-10-12T19:16:45.705Z,23.33
2022-10-12T19:19:20.745Z,25.60
2022-10-12T19:21:51.626Z,23.17
2022-10-12T19:24:23.053Z,25.35
2022-10-12T19:26:51.776Z,22.90
2022-10-12T19:29:20.347Z,25.73
2022-10-12T19:31:51.332Z,23.58
2022-10-12T19:34:22.188Z,22.63
2022-10-12T19:36:52.603Z,23.88
2022-10-12T19:39:23.853Z,23.85
2022-10-12T19:41:53.396Z,23.98
2022-10-12T19:44:22.519Z,23.08
2022-10-12T19:46:53.551Z,22.38
2022-10-12T19:49:22.218Z,22.95
2022-10-12T19:51:52.240Z,22.95
2022-10-12T19:54:21.030Z,23.25
2022-10-12T19:56:49.605Z,24.35
2022-10-12T19:59:18.333Z,22.83
2022-10-12T20:01:48.212Z,24.73
2022-10-12T20:04:17.660Z,23.92
2022-10-12T20:06:46.398Z,23.23
2022-10-12T20:09:16.642Z,22.40
2022-10-12T20:11:45.283Z,23.65
2022-10-12T20:14:14.262Z,24.63
2022-10-12T20:16:42.983Z,23.90
2022-10-12T20:19:11.918Z,28.88
2022-10-12T20:21:40.547Z,25.20
2022-10-12T20:24:10.857Z,24.00
2022-10-12T20:26:42.363Z,24.27
2022-10-12T20:29:10.948Z,24.77
2022-10-12T20:31:39.504Z,24.65
2022-10-12T20:34:08.121Z,22.85
2022-10-12T20:36:37.123Z,24.23
2022-10-12T20:39:06.120Z,22.63
2022-10-12T20:41:34.737Z,23.52
2022-10-12T20:44:04.770Z,25.20
2022-10-12T20:46:33.396Z,24.73
2022-10-12T20:49:03.767Z,23.60
2022-10-12T20:51:36.301Z,24.23
2022-10-12T20:54:08.789Z,25.52
2022-10-12T20:56:41.792Z,24.23
2022-10-12T20:59:12.484Z,25.25
2022-10-12T21:01:41.016Z,23.10
2022-10-12T21:04:10.252Z,27.38
2022-10-12T21:06:39.568Z,48.38
2022-10-12T21:09:08.252Z,65.07
2022-10-12T21:11:37.204Z,35.63
2022-10-12T21:14:05.766Z,26.10
2022-10-12T21:16:35.752Z,25.13
2022-10-12T21:19:04.346Z,26.65
2022-10-12T21:21:32.966Z,25.80
2022-10-12T21:24:03.899Z,26.48
2022-10-12T21:26:32.936Z,30.00
2022-10-12T21:29:02.060Z,28.52
2022-10-12T21:31:32.760Z,30.35
2022-10-12T21:34:05.443Z,27.42
2022-10-12T21:36:37.763Z,26.60
2022-10-12T21:39:12.242Z,27.33
2022-10-12T21:41:40.931Z,25.85
2022-10-12T21:44:10.583Z,26.38
2022-10-12T21:46:39.709Z,29.48
2022-10-12T21:49:09.662Z,27.55
2022-10-12T21:51:39.072Z,26.33
2022-10-12T21:54:08.514Z,26.52
2022-10-12T21:56:38.672Z,27.88
2022-10-12T21:59:08.076Z,28.55
2022-10-12T22:01:40.317Z,28.35
2022-10-12T22:04:15.544Z,30.13
2022-10-12T22:06:44.731Z,29.38
2022-10-12T22:09:19.409Z,30.33
2022-10-12T22:11:49.269Z,37.42
2022-10-12T22:14:20.220Z,30.98
2022-10-12T22:16:48.978Z,31.77
2022-10-12T22:19:20.209Z,28.90
2022-10-12T22:21:51.149Z,30.88
2022-10-12T22:24:20.691Z,32.28
2022-10-12T22:26:49.616Z,28.42
2022-10-12T22:29:18.252Z,32.60
2022-10-12T22:31:46.859Z,31.30
2022-10-12T22:34:15.406Z,29.35
2022-10-12T22:36:45.369Z,30.60
2022-10-12T22:39:13.999Z,29.73
2022-10-12T22:41:42.688Z,28.38
2022-10-12T22:44:11.321Z,29.63
2022-10-12T22:46:39.915Z,32.72
2022-10-12T22:49:08.738Z,28.65
2022-10-12T22:51:40.237Z,29.80
2022-10-12T22:54:13.268Z,29.73
2022-10-12T22:56:41.850Z,32.88
2022-10-12T22:59:16.037Z,31.10
2022-10-12T23:01:45.541Z,32.67
2022-10-12T23:04:14.202Z,30.73
2022-10-12T23:06:42.765Z,30.75
2022-10-12T23:09:12.859Z,32.63
2022-10-12T23:11:41.413Z,33.25
2022-10-12T23:14:12.530Z,34.45
2022-10-12T23:16:41.089Z,39.67
2022-10-12T23:19:11.276Z,45.28
2022-10-12T23:21:39.872Z,42.92
2022-10-12T23:24:08.774Z,40.20
2022-10-12T23:26:38.673Z,43.28
2022-10-12T23:29:07.249Z,42.67
2022-10-12T23:31:36.456Z,41.50
2022-10-12T23:34:08.511Z,37.88
2022-10-12T23:36:38.042Z,36.28
2022-10-12T23:39:07.442Z,33.85
2022-10-12T23:41:37.482Z,37.88
2022-10-12T23:44:06.364Z,40.60
2022-10-12T23:46:35.629Z,40.70
2022-10-12T23:49:04.203Z,42.65
2022-10-12T23:51:33.015Z,40.45
2022-10-12T23:54:02.105Z,38.15
2022-10-12T23:56:30.741Z,38.70
2022-10-12T23:59:00.762Z,38.20
